Fukushima, Japan
Current Conditions -  °F | °C
As of 8:24 PM on Monday 22 Dec 2014 (Local Time) from RJCH Reporting Station
Snow Showers Snow Showers  
Wind Chill:   Ceiling: 2000
Heat Index: 23°   Visibility: 0.87mi
Dew Point: 18°   Wind: 17mph
Humidity: 80%   Direction: 310°NW
Pressure: 29.56"   Gusts: 30mph
Location:  41.48°N, 140.25°E
Report Text: RJCH 221124Z 31015G26KT 1400 R12///// -SHSN SCT005 BKN020 M05/M08 Q1001 RMK 4ST005 7CU020 A2958
Loading
Personal Weather Stations






























Interactive Weather Map New forecast layout! Learn more

10-Day Weather Forecast

Advertisements
Track Severe Weather on mobile